createdAt,value
2018-01-05T00:01:44.595Z,9.10
2018-01-05T00:04:12.087Z,9.10
2018-01-05T00:06:39.563Z,9.10
2018-01-05T00:09:07.039Z,9.00
2018-01-05T00:11:35.290Z,9.10
2018-01-05T00:14:02.760Z,9.00
2018-01-05T00:16:30.255Z,9.10
2018-01-05T00:18:57.731Z,9.10
2018-01-05T00:21:25.231Z,9.10
2018-01-05T00:23:52.704Z,9.00
2018-01-05T00:26:20.198Z,9.10
2018-01-05T00:28:47.671Z,9.10
2018-01-05T00:31:15.162Z,9.10
2018-01-05T00:33:42.635Z,9.00
2018-01-05T00:36:10.126Z,9.00
2018-01-05T00:38:38.367Z,8.90
2018-01-05T00:41:05.889Z,8.90
2018-01-05T00:43:34.127Z,8.90
2018-01-05T00:46:01.619Z,8.80
2018-01-05T00:48:29.094Z,8.90
2018-01-05T00:50:56.587Z,8.80
2018-01-05T00:53:24.827Z,8.80
2018-01-05T00:55:52.319Z,8.80
2018-01-05T00:58:19.796Z,8.90
2018-01-05T01:00:47.290Z,8.90
2018-01-05T01:03:15.528Z,8.90
2018-01-05T01:05:43.035Z,8.80
2018-01-05T01:08:10.507Z,8.80
2018-01-05T01:10:38.755Z,8.80
2018-01-05T01:13:06.252Z,8.70
2018-01-05T01:15:33.732Z,8.70
2018-01-05T01:18:01.223Z,8.70
2018-01-05T01:20:28.698Z,8.70
2018-01-05T01:22:56.186Z,8.70
2018-01-05T01:25:23.662Z,8.70
2018-01-05T01:27:51.160Z,8.70
2018-01-05T01:30:18.639Z,8.80
2018-01-05T01:32:46.130Z,8.70
2018-01-05T01:35:13.603Z,8.80
2018-01-05T01:37:41.864Z,8.70
2018-01-05T01:40:09.338Z,8.70
2018-01-05T01:42:36.835Z,8.70
2018-01-05T01:45:05.074Z,8.60
2018-01-05T01:47:32.566Z,8.60
2018-01-05T01:50:00.050Z,8.60
2018-01-05T01:52:27.550Z,8.60
2018-01-05T01:54:55.019Z,8.70
2018-01-05T01:57:22.516Z,8.70
2018-01-05T01:59:49.991Z,8.80
2018-01-05T02:02:17.482Z,8.70
2018-01-05T02:04:44.955Z,8.80
2018-01-05T02:07:12.431Z,8.90
2018-01-05T02:09:39.930Z,8.90
2018-01-05T02:12:07.407Z,8.80
2018-01-05T02:14:34.907Z,8.80
2018-01-05T02:17:02.374Z,8.80
2018-01-05T02:19:29.864Z,8.70
2018-01-05T02:21:57.341Z,8.70
2018-01-05T02:24:24.839Z,8.60
2018-01-05T02:26:53.079Z,8.60
2018-01-05T02:29:20.575Z,8.60
2018-01-05T02:31:48.040Z,8.60
2018-01-05T02:34:15.535Z,8.60
2018-01-05T02:36:43.775Z,8.60
2018-01-05T02:39:11.271Z,8.60
2018-01-05T02:41:38.748Z,8.60
2018-01-05T02:44:07.011Z,8.50
2018-01-05T02:46:34.491Z,8.50
2018-01-05T02:49:01.997Z,8.50
2018-01-05T02:51:30.311Z,8.50
2018-01-05T02:53:57.803Z,8.50
2018-01-05T02:56:25.281Z,8.50
2018-01-05T02:58:52.780Z,8.50
2018-01-05T03:01:21.027Z,8.50
2018-01-05T03:03:48.538Z,8.40
2018-01-05T03:06:16.784Z,8.50
2018-01-05T03:08:44.259Z,8.50
2018-01-05T03:11:11.755Z,8.40
2018-01-05T03:13:39.234Z,8.40
2018-01-05T03:16:07.496Z,8.50
2018-01-05T03:18:34.967Z,8.50
2018-01-05T03:21:02.463Z,8.50
2018-01-05T03:23:30.710Z,8.50
2018-01-05T03:25:58.211Z,8.50
2018-01-05T03:28:25.683Z,8.50
2018-01-05T03:30:53.185Z,8.60
2018-01-05T03:33:20.665Z,8.60
2018-01-05T03:35:48.160Z,8.60
2018-01-05T03:38:15.632Z,8.70
2018-01-05T03:40:43.125Z,8.60
2018-01-05T03:43:10.619Z,8.60
2018-01-05T03:45:38.867Z,8.60
2018-01-05T03:48:06.344Z,8.60
2018-01-05T03:50:33.839Z,8.60
2018-01-05T03:53:02.079Z,8.70
2018-01-05T03:55:29.568Z,8.60
2018-01-05T03:57:57.042Z,8.60
2018-01-05T04:00:24.534Z,8.70
2018-01-05T04:02:52.019Z,8.60
2018-01-05T04:05:20.259Z,8.70
2018-01-05T04:07:47.784Z,8.60
2018-01-05T04:10:15.257Z,8.70
2018-01-05T04:12:42.755Z,8.70
2018-01-05T04:15:10.231Z,8.70
2018-01-05T04:17:37.727Z,8.80
2018-01-05T04:20:05.209Z,8.70
2018-01-05T04:22:32.703Z,8.70
2018-01-05T04:25:00.184Z,8.70
2018-01-05T04:27:27.676Z,8.70
2018-01-05T04:29:55.916Z,8.80
2018-01-05T04:32:24.175Z,8.80
2018-01-05T04:34:51.654Z,8.80
2018-01-05T04:37:19.152Z,8.80
2018-01-05T04:39:47.387Z,8.80
2018-01-05T04:42:14.883Z,8.80
2018-01-05T04:44:42.363Z,8.90
2018-01-05T04:47:09.870Z,8.90
2018-01-05T04:49:37.351Z,8.90
2018-01-05T04:52:04.842Z,9.00
2018-01-05T04:54:32.327Z,9.00
2018-01-05T04:56:59.819Z,9.00
2018-01-05T04:59:28.063Z,9.00
2018-01-05T05:01:55.590Z,8.90
2018-01-05T05:04:23.835Z,9.00
2018-01-05T05:06:51.303Z,9.00
2018-01-05T05:09:18.795Z,9.00
2018-01-05T05:11:46.270Z,9.00
2018-01-05T05:14:13.767Z,9.00
2018-01-05T05:16:41.235Z,9.10
2018-01-05T05:19:08.726Z,9.10
2018-01-05T05:21:36.211Z,9.10
2018-01-05T05:24:03.702Z,9.10
2018-01-05T05:26:31.180Z,9.00
2018-01-05T05:28:58.667Z,9.00
2018-01-05T05:31:26.912Z,9.00
2018-01-05T05:33:54.524Z,9.00
2018-01-05T05:36:22.759Z,9.00
2018-01-05T05:38:50.251Z,8.90
2018-01-05T05:41:17.727Z,9.00
2018-01-05T05:43:45.228Z,9.00
2018-01-05T05:46:13.468Z,9.20
2018-01-05T05:48:40.968Z,9.10
2018-01-05T05:51:08.435Z,9.10
2018-01-05T05:53:35.927Z,9.10
2018-01-05T05:56:04.171Z,9.30
2018-01-05T05:58:31.667Z,9.20
2018-01-05T06:00:59.147Z,9.30
2018-01-05T06:03:27.522Z,9.10
2018-01-05T06:05:55.007Z,9.10
2018-01-05T06:08:23.254Z,9.20
2018-01-05T06:10:50.739Z,9.20
2018-01-05T06:13:18.219Z,9.20
2018-01-05T06:15:45.703Z,9.30
2018-01-05T06:18:13.942Z,9.30
2018-01-05T06:20:41.440Z,9.20
2018-01-05T06:23:08.911Z,9.30
2018-01-05T06:25:36.400Z,9.30
2018-01-05T06:28:04.647Z,9.30
2018-01-05T06:30:32.142Z,9.20
2018-01-05T06:32:59.615Z,9.30
2018-01-05T06:35:27.127Z,9.30
2018-01-05T06:37:54.606Z,9.30
2018-01-05T06:40:22.103Z,9.30
2018-01-05T06:42:49.574Z,9.30
2018-01-05T06:45:17.066Z,9.30
2018-01-05T06:47:45.320Z,9.40
2018-01-05T06:50:12.811Z,9.30
2018-01-05T06:52:40.290Z,9.50
2018-01-05T06:55:07.784Z,9.50
2018-01-05T06:57:36.031Z,9.50
2018-01-05T07:00:03.504Z,9.40
2018-01-05T07:02:31.000Z,9.50
2018-01-05T07:04:58.471Z,9.40
2018-01-05T07:07:26.731Z,9.40
2018-01-05T07:09:54.207Z,9.40
2018-01-05T07:12:21.702Z,9.40
2018-01-05T07:14:49.939Z,9.50
2018-01-05T07:17:17.435Z,9.40
2018-01-05T07:19:44.903Z,9.50
2018-01-05T07:22:12.395Z,9.60
2018-01-05T07:24:39.867Z,9.60
2018-01-05T07:27:08.128Z,9.60
2018-01-05T07:29:35.595Z,9.60
2018-01-05T07:32:03.084Z,9.70
2018-01-05T07:34:31.563Z,9.70
2018-01-05T07:36:59.055Z,9.60
2018-01-05T07:39:26.530Z,9.70
2018-01-05T07:41:54.788Z,9.60
2018-01-05T07:44:22.258Z,9.60
2018-01-05T07:46:49.746Z,9.60
2018-01-05T07:49:17.222Z,9.70
2018-01-05T07:51:44.740Z,9.60
2018-01-05T07:54:12.220Z,9.70
2018-01-05T07:56:39.715Z,9.80
2018-01-05T07:59:07.183Z,9.80
2018-01-05T08:01:34.663Z,9.80
2018-01-05T08:04:02.170Z,9.80
2018-01-05T08:06:29.643Z,9.90
2018-01-05T08:08:57.160Z,9.90
2018-01-05T08:11:24.636Z,9.90
2018-01-05T08:13:52.127Z,9.90
2018-01-05T08:16:20.364Z,9.90
2018-01-05T08:18:47.855Z,9.90
2018-01-05T08:21:15.343Z,10.00
2018-01-05T08:23:42.839Z,10.00
2018-01-05T08:26:11.075Z,9.90
2018-01-05T08:28:38.567Z,9.90
2018-01-05T08:31:06.048Z,9.90
2018-01-05T08:33:34.303Z,9.90
2018-01-05T08:36:01.779Z,9.90
2018-01-05T08:38:29.267Z,9.90
2018-01-05T08:40:56.744Z,9.90
2018-01-05T08:43:24.250Z,10.00
2018-01-05T08:45:53.675Z,10.00
2018-01-05T08:48:21.179Z,10.00
2018-01-05T08:50:48.655Z,10.00
2018-01-05T08:53:16.150Z,10.00
2018-01-05T08:55:44.391Z,10.00
2018-01-05T08:58:11.867Z,10.00
2018-01-05T09:00:39.362Z,10.00
2018-01-05T09:03:06.844Z,10.00
2018-01-05T09:05:35.107Z,10.00
2018-01-05T09:08:02.591Z,10.00
2018-01-05T09:10:30.095Z,10.00
2018-01-05T09:12:57.571Z,10.10
2018-01-05T09:15:25.072Z,10.00
2018-01-05T09:17:52.553Z,10.10
2018-01-05T09:20:20.047Z,10.10
2018-01-05T09:22:47.523Z,10.20
2018-01-05T09:25:15.788Z,10.20
2018-01-05T09:27:43.259Z,10.20
2018-01-05T09:30:10.747Z,10.20
2018-01-05T09:32:38.996Z,10.20
2018-01-05T09:35:06.495Z,10.20
2018-01-05T09:37:33.971Z,10.20
2018-01-05T09:40:02.243Z,10.20
2018-01-05T09:42:29.723Z,10.20
2018-01-05T09:44:57.219Z,10.40
2018-01-05T09:47:25.459Z,10.30
2018-01-05T09:49:52.954Z,10.30
2018-01-05T09:52:20.430Z,10.30
2018-01-05T09:54:47.943Z,10.30
2018-01-05T09:57:15.419Z,10.40
2018-01-05T09:59:42.895Z,10.40
2018-01-05T10:02:10.390Z,10.40
2018-01-05T10:04:37.872Z,10.40
2018-01-05T10:07:05.363Z,10.40
2018-01-05T10:09:33.616Z,10.50
2018-01-05T10:12:01.116Z,10.40
2018-01-05T10:14:29.359Z,10.50
2018-01-05T10:16:56.855Z,10.50
2018-01-05T10:19:24.337Z,10.50
2018-01-05T10:21:52.599Z,10.50
2018-01-05T10:24:20.079Z,10.40
2018-01-05T10:26:52.332Z,10.40
2018-01-05T10:29:19.811Z,10.40
2018-01-05T10:31:47.302Z,10.40
2018-01-05T10:34:14.779Z,10.30
2018-01-05T10:36:42.275Z,10.30
2018-01-05T10:39:09.752Z,10.30
2018-01-05T10:41:37.247Z,10.40
2018-01-05T10:44:04.726Z,10.40
2018-01-05T10:46:32.232Z,10.40
2018-01-05T10:49:00.475Z,10.30
2018-01-05T10:51:27.972Z,10.30
2018-01-05T10:53:55.447Z,10.30
2018-01-05T10:56:22.963Z,10.30
2018-01-05T10:58:50.436Z,10.20
2018-01-05T11:01:17.951Z,10.20
2018-01-05T11:03:45.442Z,10.10
2018-01-05T11:06:13.693Z,10.10
2018-01-05T11:08:41.187Z,10.00
2018-01-05T11:11:08.659Z,10.10
2018-01-05T11:13:36.156Z,10.10
2018-01-05T11:16:03.636Z,10.00
2018-01-05T11:18:31.136Z,10.00
2018-01-05T11:20:58.614Z,9.90
2018-01-05T11:23:26.106Z,9.80
2018-01-05T11:25:54.348Z,9.80
2018-01-05T11:28:21.847Z,9.80
2018-01-05T11:30:49.319Z,9.80
2018-01-05T11:33:16.813Z,9.80
2018-01-05T11:35:45.056Z,9.80
2018-01-05T11:38:12.548Z,9.70
2018-01-05T11:40:40.029Z,9.80
2018-01-05T11:43:08.279Z,9.70
2018-01-05T11:45:35.743Z,9.60
2018-01-05T11:48:03.240Z,9.60
2018-01-05T11:50:30.743Z,9.60
2018-01-05T11:52:58.991Z,9.70
2018-01-05T11:55:26.463Z,9.60
2018-01-05T11:58:03.908Z,9.70
2018-01-05T12:00:31.389Z,9.60
2018-01-05T12:02:58.887Z,9.70
2018-01-05T12:05:26.364Z,9.60
2018-01-05T12:07:53.835Z,9.60
2018-01-05T12:10:21.332Z,9.50
2018-01-05T12:12:48.803Z,9.60
2018-01-05T12:15:16.295Z,9.50
2018-01-05T12:17:43.787Z,9.40
2018-01-05T12:20:11.280Z,9.40
2018-01-05T12:22:38.755Z,9.50
2018-01-05T12:25:06.243Z,9.50
2018-01-05T12:27:33.720Z,9.50
2018-01-05T12:30:01.275Z,9.40
2018-01-05T12:32:28.702Z,9.40
2018-01-05T12:34:56.198Z,9.40
2018-01-05T12:37:23.886Z,9.40
2018-01-05T12:39:52.388Z,9.40
2018-01-05T12:42:19.867Z,9.40
2018-01-05T12:44:48.331Z,9.30
2018-01-05T12:47:16.268Z,9.30
2018-01-05T12:49:43.764Z,9.20
2018-01-05T12:52:13.196Z,9.30
2018-01-05T12:54:40.692Z,9.30
2018-01-05T12:57:08.171Z,9.30
2018-01-05T12:59:35.666Z,9.40
2018-01-05T13:02:03.139Z,9.40
2018-01-05T13:04:30.617Z,9.50
2018-01-05T13:06:58.135Z,9.40
2018-01-05T13:09:25.629Z,9.30
2018-01-05T13:11:53.900Z,9.40
2018-01-05T13:14:21.379Z,9.40
2018-01-05T13:16:49.640Z,9.50
2018-01-05T13:19:17.113Z,9.40
2018-01-05T13:21:44.609Z,9.40
2018-01-05T13:24:12.843Z,9.50
2018-01-05T13:26:40.327Z,9.40
2018-01-05T13:29:07.800Z,9.50
2018-01-05T13:31:35.329Z,9.40
2018-01-05T13:34:02.822Z,9.40
2018-01-05T13:36:32.403Z,9.40
2018-01-05T13:39:00.644Z,9.40
2018-01-05T13:41:28.181Z,9.40
2018-01-05T13:43:55.681Z,9.50
2018-01-05T13:46:26.523Z,9.50
2018-01-05T13:48:54.035Z,9.40
2018-01-05T13:51:21.540Z,9.40
2018-01-05T13:53:49.020Z,9.30
2018-01-05T13:56:16.528Z,9.30
2018-01-05T13:58:44.053Z,9.20
2018-01-05T14:01:11.552Z,9.20
2018-01-05T14:03:39.368Z,9.20
2018-01-05T14:06:06.848Z,9.10
2018-01-05T14:08:38.272Z,9.20
2018-01-05T14:11:05.801Z,9.10
2018-01-05T14:13:34.057Z,9.20
2018-01-05T14:16:02.704Z,9.20
2018-01-05T14:18:30.220Z,9.30
2018-01-05T14:20:57.720Z,9.20
2018-01-05T14:23:26.948Z,9.20
2018-01-05T14:25:54.434Z,9.10
2018-01-05T14:28:21.923Z,9.20
2018-01-05T14:30:49.405Z,9.20
2018-01-05T14:33:16.903Z,9.30
2018-01-05T14:35:44.383Z,9.30
2018-01-05T14:38:11.881Z,9.20
2018-01-05T14:40:39.367Z,9.20
2018-01-05T14:43:06.860Z,9.20
2018-01-05T14:45:35.311Z,9.10
2018-01-05T14:48:02.804Z,9.10
2018-01-05T14:50:30.280Z,9.10
2018-01-05T14:52:57.766Z,9.20
2018-01-05T14:55:25.247Z,9.20
2018-01-05T14:57:52.744Z,9.10
2018-01-05T15:00:22.860Z,9.10
2018-01-05T15:02:51.120Z,9.10
2018-01-05T15:05:18.597Z,9.10
2018-01-05T15:07:46.072Z,9.20
2018-01-05T15:10:13.564Z,9.20
2018-01-05T15:12:41.796Z,9.20
2018-01-05T15:15:09.363Z,9.20
2018-01-05T15:17:36.835Z,9.20
2018-01-05T15:20:04.327Z,9.20
2018-01-05T15:22:31.795Z,9.20
2018-01-05T15:24:59.301Z,9.20
2018-01-05T15:27:27.547Z,9.20
2018-01-05T15:29:56.036Z,9.10
2018-01-05T15:32:23.525Z,9.10
2018-01-05T15:34:51.039Z,9.00
2018-01-05T15:37:18.516Z,9.00
2018-01-05T15:39:46.008Z,9.00
2018-01-05T15:42:13.484Z,9.00
2018-01-05T15:44:44.703Z,8.90
2018-01-05T15:47:12.180Z,8.90
2018-01-05T15:49:39.679Z,8.90
2018-01-05T15:52:07.156Z,9.00
2018-01-05T15:54:34.659Z,9.20
2018-01-05T15:57:02.138Z,9.20
2018-01-05T15:59:30.400Z,9.10
2018-01-05T16:01:57.879Z,9.00
2018-01-05T16:04:25.363Z,9.10
2018-01-05T16:06:53.641Z,9.10
2018-01-05T16:09:21.124Z,9.00
2018-01-05T16:11:49.392Z,9.30
2018-01-05T16:14:17.826Z,9.20
2018-01-05T16:16:45.330Z,9.30
2018-01-05T16:19:12.837Z,9.30
2018-01-05T16:21:41.099Z,9.30
2018-01-05T16:24:08.583Z,9.20
2018-01-05T16:26:36.088Z,9.30
2018-01-05T16:29:03.593Z,9.20
2018-01-05T16:31:31.083Z,9.20
2018-01-05T16:33:58.559Z,9.10
2018-01-05T16:36:26.940Z,9.10
2018-01-05T16:38:54.424Z,9.10
2018-01-05T16:41:21.923Z,9.10
2018-01-05T16:43:49.425Z,9.00
2018-01-05T16:46:16.916Z,9.00
2018-01-05T16:48:44.663Z,9.00
2018-01-05T16:51:12.163Z,9.00
2018-01-05T16:53:39.634Z,8.90
2018-01-05T16:56:07.136Z,8.80
2018-01-05T16:58:35.384Z,8.80
2018-01-05T17:01:02.875Z,8.80
2018-01-05T17:03:30.354Z,8.90
2018-01-05T17:05:57.848Z,8.90
2018-01-05T17:08:25.328Z,8.80
2018-01-05T17:10:52.846Z,8.80
2018-01-05T17:13:20.321Z,8.90
2018-01-05T17:15:47.801Z,8.90
2018-01-05T17:18:15.297Z,8.80
2018-01-05T17:20:42.776Z,8.70
2018-01-05T17:23:10.271Z,8.80
2018-01-05T17:25:37.748Z,8.80
2018-01-05T17:28:05.605Z,8.80
2018-01-05T17:30:33.848Z,8.70
2018-01-05T17:33:01.345Z,8.70
2018-01-05T17:35:28.819Z,8.70
2018-01-05T17:37:56.315Z,8.80
2018-01-05T17:40:23.792Z,8.80
2018-01-05T17:42:51.286Z,8.80
2018-01-05T17:45:18.759Z,8.80
2018-01-05T17:47:46.256Z,8.80
2018-01-05T17:50:14.496Z,8.70
2018-01-05T17:52:41.987Z,8.70
2018-01-05T17:55:09.463Z,8.70
2018-01-05T17:57:36.960Z,8.80
2018-01-05T18:00:06.023Z,8.70
2018-01-05T18:02:33.514Z,8.70
2018-01-05T18:05:00.983Z,8.70
2018-01-05T18:07:28.581Z,8.70
2018-01-05T18:09:56.095Z,8.70
2018-01-05T18:12:23.567Z,8.70
2018-01-05T18:14:51.068Z,8.70
2018-01-05T18:17:18.553Z,8.70
2018-01-05T18:19:46.819Z,8.70
2018-01-05T18:22:15.082Z,8.70
2018-01-05T18:24:42.579Z,8.60
2018-01-05T18:27:10.059Z,8.70
2018-01-05T18:29:38.329Z,8.70
2018-01-05T18:32:05.811Z,8.70
2018-01-05T18:34:33.308Z,8.80
2018-01-05T18:37:00.824Z,8.70
2018-01-05T18:39:28.294Z,8.70
2018-01-05T18:41:55.767Z,8.70
2018-01-05T18:44:23.264Z,8.70
2018-01-05T18:46:50.728Z,8.70
2018-01-05T18:49:18.235Z,8.80
2018-01-05T18:51:56.023Z,8.80
2018-01-05T18:54:24.287Z,8.80
2018-01-05T18:56:51.779Z,8.80
2018-01-05T18:59:20.035Z,8.90
2018-01-05T19:01:47.523Z,8.80
2018-01-05T19:04:15.032Z,8.90
2018-01-05T19:06:42.504Z,8.90
2018-01-05T19:09:10.034Z,9.00
2018-01-05T19:11:37.497Z,9.00
2018-01-05T19:14:04.977Z,9.00
2018-01-05T19:16:32.475Z,9.00
2018-01-05T19:18:59.951Z,9.00
2018-01-05T19:21:27.448Z,8.90
2018-01-05T19:23:54.928Z,8.80
2018-01-05T19:26:22.420Z,8.80
2018-01-05T19:28:49.899Z,8.90
2018-01-05T19:31:17.392Z,8.90
2018-01-05T19:33:45.644Z,8.90
2018-01-05T19:36:13.139Z,8.90
2018-01-05T19:38:41.383Z,8.70
2018-01-05T19:41:08.884Z,8.70
2018-01-05T19:43:36.360Z,8.70
2018-01-05T19:46:03.851Z,8.70
2018-01-05T19:48:31.332Z,8.80
2018-01-05T19:50:58.827Z,8.70
2018-01-05T19:53:26.299Z,8.70
2018-01-05T19:55:53.792Z,8.70
2018-01-05T19:58:21.267Z,8.70
2018-01-05T20:00:48.760Z,8.70
2018-01-05T20:03:16.991Z,8.70
2018-01-05T20:05:45.256Z,8.80
2018-01-05T20:08:12.751Z,8.70
2018-01-05T20:10:40.237Z,8.80
2018-01-05T20:13:07.727Z,8.80
2018-01-05T20:15:35.204Z,8.80
2018-01-05T20:18:02.704Z,8.80
2018-01-05T20:20:30.191Z,8.80
2018-01-05T20:22:57.686Z,8.80
2018-01-05T20:25:25.160Z,8.80
2018-01-05T20:27:52.667Z,8.70
2018-01-05T20:30:20.903Z,8.70
2018-01-05T20:32:48.400Z,8.70
2018-01-05T20:35:15.876Z,8.80
2018-01-05T20:37:43.368Z,8.80
2018-01-05T20:40:11.607Z,8.90
2018-01-05T20:42:39.099Z,8.90
2018-01-05T20:45:06.574Z,8.90
2018-01-05T20:47:34.077Z,8.90
2018-01-05T20:50:01.566Z,9.00
2018-01-05T20:52:29.068Z,9.00
2018-01-05T20:54:56.548Z,8.90
2018-01-05T20:57:24.043Z,8.90
2018-01-05T20:59:52.283Z,9.00
2018-01-05T21:02:19.767Z,8.90
2018-01-05T21:04:47.247Z,9.00
2018-01-05T21:07:14.792Z,8.90
2018-01-05T21:09:42.239Z,9.00
2018-01-05T21:12:10.305Z,9.00
2018-01-05T21:14:37.783Z,8.90
2018-01-05T21:17:05.280Z,8.90
2018-01-05T21:19:32.756Z,8.90
2018-01-05T21:22:00.238Z,8.90
2018-01-05T21:24:27.736Z,8.90
2018-01-05T21:26:55.976Z,8.90
2018-01-05T21:29:23.510Z,8.90
2018-01-05T21:31:50.987Z,8.90
2018-01-05T21:34:18.483Z,9.00
2018-01-05T21:36:45.955Z,9.00
2018-01-05T21:39:13.447Z,9.00
2018-01-05T21:41:40.920Z,9.00
2018-01-05T21:44:08.415Z,9.00
2018-01-05T21:46:36.655Z,9.00
2018-01-05T21:49:04.147Z,9.00
2018-01-05T21:51:31.622Z,9.00
2018-01-05T21:53:59.129Z,9.00
2018-01-05T21:56:26.613Z,9.10
2018-01-05T21:58:54.115Z,9.10
2018-01-05T22:01:21.587Z,9.10
2018-01-05T22:03:49.092Z,9.10
2018-01-05T22:06:17.335Z,9.10
2018-01-05T22:08:44.879Z,9.10
2018-01-05T22:11:12.368Z,9.10
2018-01-05T22:13:39.866Z,9.20
2018-01-05T22:16:07.336Z,9.10
2018-01-05T22:18:34.851Z,9.20
2018-01-05T22:21:02.359Z,9.20
2018-01-05T22:23:29.859Z,9.20
2018-01-05T22:25:57.555Z,9.20
2018-01-05T22:28:25.828Z,9.30
2018-01-05T22:30:54.072Z,9.20
2018-01-05T22:33:21.565Z,9.20
2018-01-05T22:35:49.043Z,9.30
2018-01-05T22:38:16.536Z,9.20
2018-01-05T22:40:44.778Z,9.20
2018-01-05T22:43:12.282Z,9.20
2018-01-05T22:45:39.760Z,9.30
2018-01-05T22:48:07.267Z,9.30
2018-01-05T22:50:35.656Z,9.30
2018-01-05T22:53:03.143Z,9.20
2018-01-05T22:55:30.622Z,9.30
2018-01-05T22:57:58.119Z,9.30
2018-01-05T23:00:25.614Z,9.30
2018-01-05T23:02:54.229Z,9.30
2018-01-05T23:05:21.711Z,9.30
2018-01-05T23:07:49.204Z,9.30
2018-01-05T23:10:16.696Z,9.40
2018-01-05T23:12:44.171Z,9.30
2018-01-05T23:15:11.667Z,9.30
2018-01-05T23:17:39.138Z,9.20
2018-01-05T23:20:06.636Z,9.20
2018-01-05T23:22:34.878Z,9.30
2018-01-05T23:25:03.147Z,9.20
2018-01-05T23:27:30.623Z,9.20
2018-01-05T23:29:58.116Z,9.20
2018-01-05T23:32:26.364Z,9.20
2018-01-05T23:34:53.854Z,9.20
2018-01-05T23:37:21.333Z,9.10
2018-01-05T23:39:48.834Z,9.10
2018-01-05T23:42:16.315Z,9.10
2018-01-05T23:44:44.824Z,9.20
2018-01-05T23:47:12.297Z,9.20
2018-01-05T23:49:39.791Z,9.10
2018-01-05T23:52:07.271Z,9.10
2018-01-05T23:54:34.744Z,9.00
2018-01-05T23:57:20.431Z,9.10
2018-01-05T23:59:47.926Z,9.10
